Time;durP1;ratioP1;P1;durP2;ratioP2;P2;SDS_P1;SDS_P2;PMS_P1;PMS_P2;Temp;Humidity;BMP_temperature;BMP_pressure;BME280_temperature;BME280_humidity;BME280_pressure;Samples;Min_cycle;Max_cycle;Signal;HPM_P1;HPM_P2
2023/01/23 00:00:38;;;;;;;11.93;3.88;;;;;;;;;;6197102;23;20689;-74
2023/01/23 00:03:04;;;;;;;15.32;4.30;;;;;;;;;;6198226;23;20035;-74
2023/01/23 00:05:30;;;;;;;12.38;4.05;;;;;;;;;;6196769;23;20836;-74
2023/01/23 00:07:56;;;;;;;11.38;4.47;;;;;;;;;;6193077;23;20183;-74
2023/01/23 00:10:23;;;;;;;10.88;4.32;;;;;;;;;;6169191;23;20502;-74
2023/01/23 00:12:49;;;;;;;9.75;4.20;;;;;;;;;;6170486;23;20054;-74
2023/01/23 00:15:15;;;;;;;8.25;4.15;;;;;;;;;;6172202;23;20020;-74
2023/01/23 00:17:41;;;;;;;8.50;4.03;;;;;;;;;;6198906;23;20083;-74
2023/01/23 00:20:15;;;;;;;9.23;4.40;;;;;;;;;;6172477;23;20020;-74
2023/01/23 00:22:41;;;;;;;8.57;3.95;;;;;;;;;;6172526;23;20027;-74
2023/01/23 00:25:07;;;;;;;9.63;4.20;;;;;;;;;;6197262;23;20028;-74
2023/01/23 00:27:33;;;;;;;14.35;4.45;;;;;;;;;;6195791;23;20025;-74
2023/01/23 00:29:59;;;;;;;9.38;4.50;;;;;;;;;;6196100;23;20024;-74
2023/01/23 00:32:27;;;;;;;9.00;4.18;;;;;;;;;;6195852;23;20082;-74
2023/01/23 00:34:53;;;;;;;11.07;3.92;;;;;;;;;;6197792;23;20017;-74
2023/01/23 00:37:19;;;;;;;16.17;4.05;;;;;;;;;;6194277;23;20728;-74
2023/01/23 00:39:45;;;;;;;12.07;4.18;;;;;;;;;;6194807;23;20020;-74
2023/01/23 00:42:12;;;;;;;10.57;3.90;;;;;;;;;;6195546;23;20383;-74
2023/01/23 00:44:38;;;;;;;11.20;3.70;;;;;;;;;;6194791;23;20025;-74
2023/01/23 00:47:05;;;;;;;9.88;4.25;;;;;;;;;;6170300;23;20055;-74
2023/01/23 00:49:31;;;;;;;10.73;3.80;;;;;;;;;;6193593;23;20031;-77
2023/01/23 00:51:57;;;;;;;13.85;4.75;;;;;;;;;;6169283;23;20070;-77
2023/01/23 00:54:24;;;;;;;11.18;3.80;;;;;;;;;;6195981;23;20021;-77
2023/01/23 00:56:51;;;;;;;13.57;4.20;;;;;;;;;;6169895;23;20042;-77
2023/01/23 00:59:17;;;;;;;7.30;4.05;;;;;;;;;;6195216;23;20338;-77
2023/01/23 01:01:43;;;;;;;10.63;4.10;;;;;;;;;;6144941;23;20020;-78
2023/01/23 01:04:09;;;;;;;8.45;4.13;;;;;;;;;;6195866;23;20016;-77
2023/01/23 01:06:35;;;;;;;6.35;3.60;;;;;;;;;;6196130;23;20335;-77
2023/01/23 01:09:01;;;;;;;9.40;3.95;;;;;;;;;;6204196;23;20016;-77
2023/01/23 01:11:27;;;;;;;8.43;3.55;;;;;;;;;;6185712;23;20494;-77
2023/01/23 01:13:53;;;;;;;9.55;4.57;;;;;;;;;;6207253;23;20051;-77
2023/01/23 01:16:19;;;;;;;9.73;3.88;;;;;;;;;;6215459;23;20030;-77
2023/01/23 01:18:46;;;;;;;9.75;4.15;;;;;;;;;;6213388;23;20062;-76
2023/01/23 01:21:13;;;;;;;11.63;4.13;;;;;;;;;;6174821;23;20028;-77
2023/01/23 01:23:40;;;;;;;6.65;3.90;;;;;;;;;;6204555;23;20332;-77
2023/01/23 01:26:07;;;;;;;8.10;4.00;;;;;;;;;;6216358;23;20028;-77
2023/01/23 01:28:34;;;;;;;9.18;3.95;;;;;;;;;;6210898;23;20074;-77
2023/01/23 01:31:04;;;;;;;6.40;3.95;;;;;;;;;;6212961;23;20136;-77
2023/01/23 01:33:31;;;;;;;11.00;4.90;;;;;;;;;;6194543;23;20012;-77
2023/01/23 01:35:58;;;;;;;10.73;4.15;;;;;;;;;;6208848;23;20734;-77
2023/01/23 01:38:24;;;;;;;7.07;4.07;;;;;;;;;;6194475;23;20034;-78
2023/01/23 01:40:50;;;;;;;8.50;3.63;;;;;;;;;;6195152;23;20025;-77
2023/01/23 01:43:24;;;;;;;7.63;3.83;;;;;;;;;;6194130;23;20108;-77
2023/01/23 01:46:08;;;;;;;8.82;4.10;;;;;;;;;;6194874;23;20044;-78
2023/01/23 01:48:37;;;;;;;13.02;4.45;;;;;;;;;;6193289;23;20066;-77
2023/01/23 01:51:15;;;;;;;12.02;3.85;;;;;;;;;;6194429;23;20019;-78
2023/01/23 01:53:41;;;;;;;11.52;6.25;;;;;;;;;;6194290;23;20061;-77
2023/01/23 01:56:09;;;;;;;9.90;4.47;;;;;;;;;;6168787;23;20070;-78
2023/01/23 01:58:37;;;;;;;7.40;3.80;;;;;;;;;;6194931;23;20023;-78
2023/01/23 02:01:03;;;;;;;9.75;3.92;;;;;;;;;;6196134;23;20459;-77
2023/01/23 02:03:30;;;;;;;11.48;4.18;;;;;;;;;;6195556;23;20481;-77
2023/01/23 02:05:57;;;;;;;8.98;3.53;;;;;;;;;;6193530;23;20106;-77
2023/01/23 02:08:35;;;;;;;12.25;4.47;;;;;;;;;;6192490;23;20024;-77
2023/01/23 02:11:02;;;;;;;9.68;4.10;;;;;;;;;;6194516;23;20071;-77
2023/01/23 02:13:34;;;;;;;6.65;3.75;;;;;;;;;;6194314;23;20024;-78
2023/01/23 02:16:20;;;;;;;7.75;4.03;;;;;;;;;;6194379;23;20024;-77
2023/01/23 02:18:48;;;;;;;10.93;4.03;;;;;;;;;;6193323;23;20443;-78
2023/01/23 02:21:16;;;;;;;6.75;3.58;;;;;;;;;;6196109;23;20386;-77
2023/01/23 02:23:48;;;;;;;8.05;4.07;;;;;;;;;;6195033;23;20020;-78
2023/01/23 02:26:19;;;;;;;10.45;3.92;;;;;;;;;;6195488;23;20075;-78
2023/01/23 02:28:52;;;;;;;14.27;4.10;;;;;;;;;;6194467;23;20327;-77
2023/01/23 02:31:18;;;;;;;9.93;4.25;;;;;;;;;;6196866;23;20346;-78
2023/01/23 02:33:47;;;;;;;11.77;4.75;;;;;;;;;;6198297;23;20549;-77
2023/01/23 02:36:14;;;;;;;10.98;4.78;;;;;;;;;;6200013;23;20020;-78
2023/01/23 02:38:44;;;;;;;11.02;4.30;;;;;;;;;;6198126;23;20537;-78
2023/01/23 02:41:12;;;;;;;13.50;4.50;;;;;;;;;;6197360;23;20020;-78
2023/01/23 02:43:38;;;;;;;11.20;4.38;;;;;;;;;;6199621;23;20028;-78
2023/01/23 02:46:05;;;;;;;9.82;4.65;;;;;;;;;;6198000;23;20119;-78
2023/01/23 02:48:31;;;;;;;7.47;4.38;;;;;;;;;;6199692;23;20016;-78
2023/01/23 02:50:57;;;;;;;9.80;4.50;;;;;;;;;;6204765;23;20012;-78
2023/01/23 02:53:24;;;;;;;7.68;4.40;;;;;;;;;;6214479;23;20027;-77
2023/01/23 02:55:51;;;;;;;11.07;4.22;;;;;;;;;;6186786;23;20016;-78
2023/01/23 03:01:02;;;;;;;12.50;4.50;;;;;;;;;;6213558;23;20543;-77
2023/01/23 03:03:29;;;;;;;7.00;4.30;;;;;;;;;;6178422;23;20102;-78
2023/01/23 03:05:56;;;;;;;8.27;4.82;;;;;;;;;;6171454;23;20021;-78
2023/01/23 03:08:23;;;;;;;10.48;4.63;;;;;;;;;;6196998;23;20021;-77
2023/01/23 03:10:49;;;;;;;10.13;4.72;;;;;;;;;;6198367;23;20074;-77
2023/01/23 03:13:15;;;;;;;7.28;4.43;;;;;;;;;;6175074;23;20031;-77
2023/01/23 03:15:41;;;;;;;10.10;4.93;;;;;;;;;;6211529;23;20017;-78
2023/01/23 03:18:07;;;;;;;11.50;5.10;;;;;;;;;;6191274;23;20428;-76
2023/01/23 03:20:40;;;;;;;9.45;4.68;;;;;;;;;;6186643;23;20027;-77
2023/01/23 03:23:07;;;;;;;10.25;5.05;;;;;;;;;;6222151;23;20012;-77
2023/01/23 03:25:33;;;;;;;11.27;5.05;;;;;;;;;;6221600;23;20031;-77
2023/01/23 03:28:00;;;;;;;9.05;4.75;;;;;;;;;;6205193;23;20064;-78
2023/01/23 03:30:26;;;;;;;9.00;4.97;;;;;;;;;;6196839;23;20114;-77
2023/01/23 03:32:52;;;;;;;9.63;4.88;;;;;;;;;;6171151;23;20071;-77
2023/01/23 03:35:19;;;;;;;9.65;4.65;;;;;;;;;;6196815;23;20021;-78
2023/01/23 03:37:46;;;;;;;8.10;4.22;;;;;;;;;;6196461;23;20012;-78
2023/01/23 03:43:03;;;;;;;8.75;4.70;;;;;;;;;;6195361;23;20116;-78
2023/01/23 03:45:29;;;;;;;14.65;4.35;;;;;;;;;;6193115;23;20134;-77
2023/01/23 03:47:55;;;;;;;9.63;4.88;;;;;;;;;;6195633;23;20023;-77
2023/01/23 03:50:21;;;;;;;8.73;5.00;;;;;;;;;;6195356;23;20016;-77
2023/01/23 03:52:47;;;;;;;9.80;4.20;;;;;;;;;;6194387;23;20025;-78
2023/01/23 03:55:13;;;;;;;8.13;4.63;;;;;;;;;;6195089;23;20016;-77
2023/01/23 03:57:39;;;;;;;17.83;5.70;;;;;;;;;;6196945;23;20721;-77
2023/01/23 04:00:06;;;;;;;16.30;5.38;;;;;;;;;;6193996;23;20024;-78
2023/01/23 04:02:32;;;;;;;13.35;6.50;;;;;;;;;;6195686;23;20020;-75
2023/01/23 04:04:58;;;;;;;8.38;5.38;;;;;;;;;;6196494;23;20803;-74
2023/01/23 04:07:24;;;;;;;10.23;4.50;;;;;;;;;;6195310;23;20059;-75
2023/01/23 04:09:50;;;;;;;9.95;4.88;;;;;;;;;;6195983;23;20039;-74
2023/01/23 04:12:16;;;;;;;10.95;5.32;;;;;;;;;;6196367;23;20074;-74
2023/01/23 04:14:43;;;;;;;9.13;5.20;;;;;;;;;;6196022;23;20016;-74
2023/01/23 04:17:10;;;;;;;7.93;5.05;;;;;;;;;;6195836;23;20024;-74
2023/01/23 04:19:36;;;;;;;9.98;5.00;;;;;;;;;;6192661;23;20048;-72
2023/01/23 04:22:03;;;;;;;19.50;5.53;;;;;;;;;;6195354;23;20017;-75
2023/01/23 04:24:29;;;;;;;7.15;4.53;;;;;;;;;;6196148;23;20486;-74
2023/01/23 04:26:55;;;;;;;10.82;5.43;;;;;;;;;;6170511;23;20021;-74
2023/01/23 04:29:21;;;;;;;8.55;5.13;;;;;;;;;;6195155;23;20047;-77
2023/01/23 04:31:48;;;;;;;8.45;5.00;;;;;;;;;;6198238;23;20012;-77
2023/01/23 04:34:14;;;;;;;11.35;5.43;;;;;;;;;;6200553;23;20016;-78
2023/01/23 04:36:40;;;;;;;10.85;5.63;;;;;;;;;;6211550;23;20022;-77
2023/01/23 04:39:06;;;;;;;9.25;5.70;;;;;;;;;;6187487;23;20346;-78
2023/01/23 04:41:32;;;;;;;12.88;5.65;;;;;;;;;;6188605;23;20016;-77
2023/01/23 04:44:18;;;;;;;12.52;6.43;;;;;;;;;;6162152;23;20051;-77
2023/01/23 04:46:45;;;;;;;14.00;6.47;;;;;;;;;;6205947;23;20020;-78
2023/01/23 04:49:11;;;;;;;10.18;6.55;;;;;;;;;;6196205;23;20023;-78
2023/01/23 04:51:37;;;;;;;17.83;7.55;;;;;;;;;;6195936;23;20096;-79
2023/01/23 04:54:03;;;;;;;12.60;7.35;;;;;;;;;;6195682;23;20116;-78
2023/01/23 04:56:29;;;;;;;14.30;7.45;;;;;;;;;;6195834;23;20031;-79
2023/01/23 04:58:57;;;;;;;14.10;6.95;;;;;;;;;;6195903;23;20021;-79
2023/01/23 05:01:23;;;;;;;15.23;7.13;;;;;;;;;;6195713;23;20020;-78
2023/01/23 05:03:49;;;;;;;13.88;7.25;;;;;;;;;;6195131;23;20020;-78
2023/01/23 05:06:15;;;;;;;13.57;7.05;;;;;;;;;;6201583;23;20020;-77
2023/01/23 05:08:41;;;;;;;15.00;7.95;;;;;;;;;;6215282;23;20020;-77
2023/01/23 05:11:07;;;;;;;15.50;7.50;;;;;;;;;;6211465;23;20187;-77
2023/01/23 05:13:33;;;;;;;12.05;7.82;;;;;;;;;;6199589;23;20008;-78
2023/01/23 05:15:59;;;;;;;18.23;7.30;;;;;;;;;;6201571;23;20134;-78
2023/01/23 05:18:25;;;;;;;19.00;8.93;;;;;;;;;;6212250;23;20027;-78
2023/01/23 05:20:51;;;;;;;16.40;7.18;;;;;;;;;;6170923;23;20051;-78
2023/01/23 05:23:18;;;;;;;13.68;8.02;;;;;;;;;;6194676;23;20056;-79
2023/01/23 05:25:44;;;;;;;13.63;8.18;;;;;;;;;;6171315;23;20102;-78
2023/01/23 05:28:10;;;;;;;17.67;7.47;;;;;;;;;;6197818;23;20031;-78
2023/01/23 05:30:37;;;;;;;17.73;7.57;;;;;;;;;;6172302;23;20052;-78
2023/01/23 05:33:03;;;;;;;13.75;7.38;;;;;;;;;;6195262;23;20517;-78
2023/01/23 05:35:29;;;;;;;15.80;7.32;;;;;;;;;;6199112;23;20028;-78
2023/01/23 05:37:56;;;;;;;13.65;7.47;;;;;;;;;;6198081;23;20095;-78
2023/01/23 05:40:22;;;;;;;10.63;6.65;;;;;;;;;;6197429;23;20016;-79
2023/01/23 05:42:48;;;;;;;11.23;6.45;;;;;;;;;;6171879;23;20019;-78
2023/01/23 05:45:15;;;;;;;9.75;6.72;;;;;;;;;;6196840;23;20016;-79
2023/01/23 05:47:41;;;;;;;13.30;7.28;;;;;;;;;;6197615;23;20108;-79
2023/01/23 05:50:07;;;;;;;13.88;6.78;;;;;;;;;;6170793;23;20017;-79
2023/01/23 05:52:34;;;;;;;9.25;6.65;;;;;;;;;;6197409;23;20020;-78
2023/01/23 05:55:00;;;;;;;9.82;6.85;;;;;;;;;;6172395;23;20021;-78
2023/01/23 05:57:26;;;;;;;14.52;7.43;;;;;;;;;;6195123;23;20029;-80
2023/01/23 05:59:52;;;;;;;16.38;6.75;;;;;;;;;;6198660;23;20027;-80
2023/01/23 06:02:18;;;;;;;12.43;6.72;;;;;;;;;;6200044;23;20055;-80
2023/01/23 06:04:46;;;;;;;9.82;6.15;;;;;;;;;;6175766;23;20451;-79
2023/01/23 06:07:13;;;;;;;10.63;5.85;;;;;;;;;;6204374;23;20439;-81
2023/01/23 06:09:39;;;;;;;13.23;6.18;;;;;;;;;;6180316;23;20028;-79
2023/01/23 06:12:05;;;;;;;10.38;6.20;;;;;;;;;;6211518;23;20114;-80
2023/01/23 06:14:32;;;;;;;10.73;6.03;;;;;;;;;;6214859;23;20330;-80
2023/01/23 06:16:58;;;;;;;10.88;6.30;;;;;;;;;;6211985;23;20043;-79
2023/01/23 06:19:24;;;;;;;8.25;5.65;;;;;;;;;;6215773;23;20048;-80
2023/01/23 06:21:50;;;;;;;11.45;6.07;;;;;;;;;;6210567;23;20651;-81
2023/01/23 06:24:16;;;;;;;7.93;5.18;;;;;;;;;;6231036;23;20062;-80
2023/01/23 06:26:42;;;;;;;10.95;5.82;;;;;;;;;;6207835;23;20028;-80
2023/01/23 06:29:08;;;;;;;10.27;6.03;;;;;;;;;;6234391;23;20448;-79
2023/01/23 06:31:34;;;;;;;7.68;5.68;;;;;;;;;;6205589;23;20020;-79
2023/01/23 06:34:00;;;;;;;9.25;5.65;;;;;;;;;;6233399;23;20015;-79
2023/01/23 06:36:27;;;;;;;10.85;6.93;;;;;;;;;;6234918;23;20012;-80
2023/01/23 06:38:53;;;;;;;14.80;6.60;;;;;;;;;;6234790;23;20027;-79
2023/01/23 06:41:19;;;;;;;7.78;5.95;;;;;;;;;;6235421;23;20327;-79
2023/01/23 06:43:45;;;;;;;9.52;6.03;;;;;;;;;;6208077;23;20551;-79
2023/01/23 06:46:12;;;;;;;8.02;5.75;;;;;;;;;;6238992;23;20016;-79
2023/01/23 06:48:38;;;;;;;8.52;6.05;;;;;;;;;;6258693;23;20334;-80
2023/01/23 06:51:05;;;;;;;11.35;5.18;;;;;;;;;;6251759;23;20016;-80
2023/01/23 06:53:31;;;;;;;9.68;5.68;;;;;;;;;;6242059;23;20004;-80
2023/01/23 06:56:01;;;;;;;8.65;6.38;;;;;;;;;;6215728;23;20027;-80
2023/01/23 06:58:27;;;;;;;11.00;5.25;;;;;;;;;;6246936;23;20012;-80
2023/01/23 07:00:54;;;;;;;10.15;5.15;;;;;;;;;;6256090;23;20477;-80
2023/01/23 07:03:20;;;;;;;9.35;6.20;;;;;;;;;;6257059;23;20020;-80
2023/01/23 07:05:46;;;;;;;7.40;5.43;;;;;;;;;;6252503;23;20012;-80
2023/01/23 07:08:12;;;;;;;7.70;5.03;;;;;;;;;;6208244;23;20016;-80
2023/01/23 07:10:39;;;;;;;7.28;4.95;;;;;;;;;;6208533;23;20027;-81
2023/01/23 07:13:05;;;;;;;8.88;5.72;;;;;;;;;;6210372;23;20043;-80
2023/01/23 07:15:32;;;;;;;6.43;4.65;;;;;;;;;;6207961;23;20644;-81
2023/01/23 07:17:58;;;;;;;6.18;4.20;;;;;;;;;;6184250;23;20107;-81
2023/01/23 07:20:27;;;;;;;4.47;3.42;;;;;;;;;;6210380;23;20054;-80
2023/01/23 07:22:54;;;;;;;4.05;3.05;;;;;;;;;;6204454;23;20048;-81
2023/01/23 07:25:20;;;;;;;4.18;2.53;;;;;;;;;;6206285;23;20477;-81
2023/01/23 07:27:46;;;;;;;4.25;3.00;;;;;;;;;;6203223;23;20056;-80
2023/01/23 07:30:13;;;;;;;3.90;3.10;;;;;;;;;;6202848;23;20016;-80
2023/01/23 07:32:39;;;;;;;6.07;3.80;;;;;;;;;;6176561;23;20024;-80
2023/01/23 07:35:05;;;;;;;8.75;4.47;;;;;;;;;;6202711;23;20079;-74
2023/01/23 07:37:31;;;;;;;5.57;4.60;;;;;;;;;;6199162;23;20086;-75
2023/01/23 07:39:57;;;;;;;7.65;4.50;;;;;;;;;;6172560;23;20032;-74
2023/01/23 07:42:24;;;;;;;5.80;4.57;;;;;;;;;;6201306;23;20446;-74
2023/01/23 07:44:50;;;;;;;7.43;5.20;;;;;;;;;;6198775;23;20020;-74
2023/01/23 07:47:21;;;;;;;6.28;5.03;;;;;;;;;;6198393;23;20035;-74
2023/01/23 07:49:47;;;;;;;4.45;2.88;;;;;;;;;;6199443;23;20057;-75
2023/01/23 07:52:13;;;;;;;6.60;2.70;;;;;;;;;;6174780;23;20051;-74
2023/01/23 07:54:40;;;;;;;8.90;3.90;;;;;;;;;;6199386;23;20020;-74
2023/01/23 07:57:06;;;;;;;6.82;4.85;;;;;;;;;;6199553;23;20016;-74
2023/01/23 07:59:32;;;;;;;12.88;8.20;;;;;;;;;;6202836;23;20084;-80
2023/01/23 08:01:58;;;;;;;13.68;8.63;;;;;;;;;;6203204;23;20504;-79
2023/01/23 08:04:24;;;;;;;13.05;8.85;;;;;;;;;;6201713;23;20023;-79
2023/01/23 08:06:50;;;;;;;11.50;8.93;;;;;;;;;;6177314;23;20031;-81
2023/01/23 08:09:16;;;;;;;14.35;9.00;;;;;;;;;;6208246;23;20020;-81
2023/01/23 08:11:42;;;;;;;15.43;8.80;;;;;;;;;;6206916;23;20021;-81
2023/01/23 08:14:08;;;;;;;10.45;8.50;;;;;;;;;;6183461;23;20028;-82
2023/01/23 08:16:34;;;;;;;16.92;8.75;;;;;;;;;;6179669;23;20016;-82
2023/01/23 08:19:00;;;;;;;14.88;8.90;;;;;;;;;;6204312;23;20074;-81
2023/01/23 08:21:26;;;;;;;13.52;8.52;;;;;;;;;;6205683;23;20022;-82
2023/01/23 08:23:52;;;;;;;12.15;9.07;;;;;;;;;;6215742;23;20084;-81
2023/01/23 08:26:19;;;;;;;12.98;8.43;;;;;;;;;;6229242;23;20042;-81
2023/01/23 08:28:45;;;;;;;11.85;8.40;;;;;;;;;;6224704;23;20039;-82
2023/01/23 08:31:12;;;;;;;11.63;7.95;;;;;;;;;;6204303;23;20005;-81
2023/01/23 08:33:38;;;;;;;11.68;8.27;;;;;;;;;;6227558;23;20008;-82
2023/01/23 08:36:05;;;;;;;11.75;8.27;;;;;;;;;;6212006;23;20390;-82
2023/01/23 08:38:31;;;;;;;12.05;8.35;;;;;;;;;;6204989;23;20023;-81
2023/01/23 08:40:59;;;;;;;12.32;8.25;;;;;;;;;;6204427;23;20054;-81
2023/01/23 08:43:25;;;;;;;11.88;7.78;;;;;;;;;;6203733;23;20091;-81
2023/01/23 08:45:52;;;;;;;15.70;9.00;;;;;;;;;;6206242;23;20020;-81
2023/01/23 08:48:19;;;;;;;13.38;8.80;;;;;;;;;;6180003;23;20021;-81
2023/01/23 08:50:45;;;;;;;16.10;10.00;;;;;;;;;;6207383;23;20020;-82
2023/01/23 08:53:12;;;;;;;14.20;9.32;;;;;;;;;;6211625;23;20024;-82
2023/01/23 08:55:38;;;;;;;14.73;10.13;;;;;;;;;;6212307;23;20024;-82
2023/01/23 08:58:05;;;;;;;15.75;10.45;;;;;;;;;;6185241;23;20039;-82
2023/01/23 09:00:31;;;;;;;18.30;11.23;;;;;;;;;;6207964;23;20024;-81
2023/01/23 09:03:01;;;;;;;17.80;11.65;;;;;;;;;;6207335;23;20028;-81
2023/01/23 09:05:28;;;;;;;17.42;10.73;;;;;;;;;;6205390;23;20058;-82
2023/01/23 09:07:54;;;;;;;15.18;11.07;;;;;;;;;;6203971;23;20091;-82
2023/01/23 09:10:20;;;;;;;20.70;11.20;;;;;;;;;;6204198;23;20031;-82
2023/01/23 09:12:46;;;;;;;16.85;11.50;;;;;;;;;;6204073;23;20024;-82
2023/01/23 09:15:12;;;;;;;17.60;10.98;;;;;;;;;;6207178;23;20087;-82
2023/01/23 09:17:38;;;;;;;18.90;12.07;;;;;;;;;;6213379;23;20016;-80
2023/01/23 09:20:05;;;;;;;17.92;11.80;;;;;;;;;;6212403;23;20029;-80
2023/01/23 09:22:32;;;;;;;18.48;12.13;;;;;;;;;;6215307;23;20050;-80
2023/01/23 09:24:58;;;;;;;17.42;11.52;;;;;;;;;;6219168;23;20024;-81
2023/01/23 09:27:24;;;;;;;24.25;11.55;;;;;;;;;;6214313;23;20023;-81
2023/01/23 09:29:50;;;;;;;18.35;11.95;;;;;;;;;;6210356;23;20100;-81
2023/01/23 09:32:16;;;;;;;24.20;12.05;;;;;;;;;;6236261;23;20291;-81
2023/01/23 09:34:42;;;;;;;23.50;13.20;;;;;;;;;;6210512;23;20398;-81
2023/01/23 09:37:09;;;;;;;19.70;12.93;;;;;;;;;;6184224;23;20761;-81
2023/01/23 09:39:35;;;;;;;17.13;11.88;;;;;;;;;;6208874;23;20012;-80
2023/01/23 09:42:07;;;;;;;19.00;12.07;;;;;;;;;;6209813;23;20331;-81
2023/01/23 09:44:51;;;;;;;17.67;12.65;;;;;;;;;;6210372;23;20498;-81
2023/01/23 09:47:36;;;;;;;18.70;12.50;;;;;;;;;;6184275;23;20023;-82
2023/01/23 09:50:13;;;;;;;21.67;12.90;;;;;;;;;;6209362;23;20688;-81
2023/01/23 09:52:45;;;;;;;20.92;12.68;;;;;;;;;;6209836;23;20102;-82
2023/01/23 09:55:13;;;;;;;18.27;12.65;;;;;;;;;;6209968;23;20099;-82
2023/01/23 09:57:46;;;;;;;18.27;11.77;;;;;;;;;;6210485;23;20024;-82
2023/01/23 10:00:17;;;;;;;21.58;12.55;;;;;;;;;;6213514;23;20019;-80
2023/01/23 10:02:44;;;;;;;22.17;12.52;;;;;;;;;;6256617;23;20023;-81
2023/01/23 10:05:15;;;;;;;18.73;12.38;;;;;;;;;;6265058;23;20016;-81
2023/01/23 10:07:59;;;;;;;17.20;12.13;;;;;;;;;;6232622;23;20016;-82
2023/01/23 10:10:44;;;;;;;22.77;11.45;;;;;;;;;;6207282;23;20023;-82
2023/01/23 10:13:18;;;;;;;19.08;11.80;;;;;;;;;;6211715;23;20023;-82
2023/01/23 10:16:04;;;;;;;20.35;12.38;;;;;;;;;;6208452;23;20024;-82
2023/01/23 10:18:38;;;;;;;19.73;11.68;;;;;;;;;;6206666;23;20493;-75
2023/01/23 10:21:04;;;;;;;17.67;11.98;;;;;;;;;;6204237;23;20782;-75
2023/01/23 10:23:36;;;;;;;18.75;11.38;;;;;;;;;;6202933;23;20055;-75
2023/01/23 10:26:03;;;;;;;21.15;12.40;;;;;;;;;;6178197;23;20397;-75
2023/01/23 10:28:37;;;;;;;21.25;12.30;;;;;;;;;;6203184;23;20496;-75
2023/01/23 10:31:13;;;;;;;20.60;11.82;;;;;;;;;;6203879;23;20447;-74
2023/01/23 10:33:42;;;;;;;21.40;11.75;;;;;;;;;;6203042;23;20024;-74
2023/01/23 10:36:27;;;;;;;17.73;11.88;;;;;;;;;;6203283;23;20092;-74
2023/01/23 10:38:56;;;;;;;22.83;12.27;;;;;;;;;;6203644;23;20023;-74
2023/01/23 10:41:22;;;;;;;19.42;12.07;;;;;;;;;;6229767;23;20016;-74
2023/01/23 10:43:49;;;;;;;19.63;11.68;;;;;;;;;;6203729;23;20019;-74
2023/01/23 10:46:20;;;;;;;18.05;12.05;;;;;;;;;;6203524;23;20122;-74
2023/01/23 10:48:48;;;;;;;17.25;11.63;;;;;;;;;;6204719;23;20024;-74
2023/01/23 10:51:23;;;;;;;17.65;12.02;;;;;;;;;;6206022;23;20075;-74
2023/01/23 10:54:19;;;;;;;18.70;11.02;;;;;;;;;;6206283;23;20746;-74
2023/01/23 10:57:01;;;;;;;16.20;10.93;;;;;;;;;;6188977;23;20438;-74
2023/01/23 10:59:30;;;;;;;14.30;10.85;;;;;;;;;;6220698;23;20048;-74
2023/01/23 11:01:57;;;;;;;18.13;10.82;;;;;;;;;;6223403;23;20027;-74
2023/01/23 11:04:25;;;;;;;18.25;12.10;;;;;;;;;;6220639;23;20035;-74
2023/01/23 11:07:02;;;;;;;18.38;12.15;;;;;;;;;;6230369;23;20131;-74
2023/01/23 11:09:29;;;;;;;17.23;11.23;;;;;;;;;;6178290;23;20575;-75
2023/01/23 11:12:05;;;;;;;18.40;11.73;;;;;;;;;;6205583;23;20020;-75
2023/01/23 11:14:31;;;;;;;14.93;10.80;;;;;;;;;;6205308;23;20012;-75
2023/01/23 11:17:13;;;;;;;20.35;12.80;;;;;;;;;;6205062;23;20031;-75
2023/01/23 11:19:39;;;;;;;19.80;12.15;;;;;;;;;;6204671;23;20070;-74
2023/01/23 11:22:22;;;;;;;14.73;10.68;;;;;;;;;;6205165;23;20386;-74
2023/01/23 11:24:48;;;;;;;17.23;10.93;;;;;;;;;;6199840;23;20020;-75
2023/01/23 11:27:14;;;;;;;17.30;11.82;;;;;;;;;;6199540;23;20020;-74
2023/01/23 11:30:01;;;;;;;15.60;11.27;;;;;;;;;;6197021;23;20027;-75
2023/01/23 11:32:28;;;;;;;16.75;12.55;;;;;;;;;;6189573;23;20017;-74
2023/01/23 11:35:02;;;;;;;18.63;12.02;;;;;;;;;;6200692;23;20095;-75
2023/01/23 11:37:36;;;;;;;19.25;12.02;;;;;;;;;;6200247;23;20016;-75
2023/01/23 11:40:05;;;;;;;17.40;11.70;;;;;;;;;;6203276;23;20027;-73
2023/01/23 11:42:33;;;;;;;22.02;12.05;;;;;;;;;;6182015;23;20019;-74
2023/01/23 11:45:00;;;;;;;16.92;11.75;;;;;;;;;;6212850;23;20032;-74
2023/01/23 11:47:45;;;;;;;19.77;11.70;;;;;;;;;;6184610;23;20020;-72
2023/01/23 11:50:15;;;;;;;17.50;12.18;;;;;;;;;;6227033;23;20013;-73
2023/01/23 11:52:54;;;;;;;19.90;11.75;;;;;;;;;;6225122;23;20016;-73
2023/01/23 11:55:34;;;;;;;18.85;12.65;;;;;;;;;;6200671;23;20016;-74
2023/01/23 11:58:13;;;;;;;19.80;11.90;;;;;;;;;;6199664;23;20017;-74
2023/01/23 12:01:02;;;;;;;15.57;11.60;;;;;;;;;;6199303;23;20025;-74
2023/01/23 12:03:47;;;;;;;20.70;12.15;;;;;;;;;;6161606;23;20098;-74
2023/01/23 12:06:34;;;;;;;21.20;12.07;;;;;;;;;;6173335;23;20028;-74
2023/01/23 12:09:15;;;;;;;17.88;11.73;;;;;;;;;;6197691;23;20394;-74
2023/01/23 12:11:47;;;;;;;18.55;12.18;;;;;;;;;;6199815;23;20349;-74
2023/01/23 12:14:19;;;;;;;17.35;11.93;;;;;;;;;;6199251;23;20024;-74
2023/01/23 12:17:09;;;;;;;15.30;10.35;;;;;;;;;;6199934;23;20490;-75
2023/01/23 12:19:44;;;;;;;13.45;11.30;;;;;;;;;;6159030;23;20025;-75
2023/01/23 12:22:13;;;;;;;17.75;11.75;;;;;;;;;;6202572;23;20175;-75
2023/01/23 12:24:45;;;;;;;16.80;11.07;;;;;;;;;;6200158;23;20024;-75
2023/01/23 12:27:23;;;;;;;19.33;11.18;;;;;;;;;;6202739;23;20028;-74
2023/01/23 12:30:05;;;;;;;17.88;11.52;;;;;;;;;;6200950;23;20762;-75
2023/01/23 12:32:35;;;;;;;18.17;10.98;;;;;;;;;;6198554;23;20062;-75
2023/01/23 12:35:19;;;;;;;14.63;10.70;;;;;;;;;;6199051;23;20142;-75
2023/01/23 12:37:58;;;;;;;15.88;10.98;;;;;;;;;;6196879;23;20072;-75
2023/01/23 12:40:35;;;;;;;16.30;11.38;;;;;;;;;;6198833;23;20108;-76
2023/01/23 12:43:05;;;;;;;14.82;10.63;;;;;;;;;;6198825;23;20065;-75
2023/01/23 12:45:32;;;;;;;13.55;9.90;;;;;;;;;;6199517;23;20024;-75
2023/01/23 12:48:01;;;;;;;12.75;9.27;;;;;;;;;;6199606;23;20063;-75
2023/01/23 12:50:30;;;;;;;15.10;9.73;;;;;;;;;;6199401;23;20027;-75
2023/01/23 12:53:03;;;;;;;12.32;9.70;;;;;;;;;;6200284;23;20048;-75
2023/01/23 12:55:29;;;;;;;12.85;9.23;;;;;;;;;;6201550;23;20051;-75
2023/01/23 12:57:56;;;;;;;12.90;9.55;;;;;;;;;;6176541;23;20017;-75
2023/01/23 13:00:25;;;;;;;11.05;8.55;;;;;;;;;;6208076;23;20091;-75
2023/01/23 13:02:55;;;;;;;12.65;9.38;;;;;;;;;;6212951;23;20019;-76
2023/01/23 13:05:27;;;;;;;11.88;8.32;;;;;;;;;;6211761;23;20026;-74
2023/01/23 13:07:58;;;;;;;10.57;8.00;;;;;;;;;;6196476;23;20028;-74
2023/01/23 13:13:24;;;;;;;10.80;8.20;;;;;;;;;;6196039;23;20025;-74
2023/01/23 13:16:04;;;;;;;10.45;7.95;;;;;;;;;;6171167;23;20827;-73
2023/01/23 13:21:59;;;;;;;11.65;7.55;;;;;;;;;;6171535;23;20013;-74
2023/01/23 13:25:08;;;;;;;;;;;;;;;;;;6199690;23;20459;-73
2023/01/23 13:26:48;;;;;;;12.93;9.43;;;;;;;;;;6210209;23;19942;-74
2023/01/23 13:29:44;;;;;;;18.20;10.90;;;;;;;;;;6209185;23;20012;-74
2023/01/23 13:32:20;;;;;;;14.68;8.50;;;;;;;;;;6221966;23;20104;-74
2023/01/23 13:34:46;;;;;;;7.97;6.57;;;;;;;;;;6222841;23;20028;-74
2023/01/23 13:37:32;;;;;;;14.70;8.50;;;;;;;;;;6206556;23;20355;-73
2023/01/23 13:40:02;;;;;;;19.77;9.80;;;;;;;;;;6198366;23;20757;-74
2023/01/23 13:42:28;;;;;;;7.10;5.82;;;;;;;;;;6197954;23;20113;-74
2023/01/23 13:45:13;;;;;;;6.15;4.90;;;;;;;;;;6195901;23;20028;-73
2023/01/23 13:50:34;;;;;;;6.47;4.90;;;;;;;;;;6197420;23;20016;-73
2023/01/23 13:58:38;;;;;;;7.78;5.63;;;;;;;;;;6196358;23;20020;-73
2023/01/23 14:06:56;;;;;;;6.78;5.60;;;;;;;;;;6195487;23;20024;-74
2023/01/23 14:09:32;;;;;;;5.25;4.00;;;;;;;;;;6171338;23;20024;-73
2023/01/23 14:12:02;;;;;;;4.30;3.85;;;;;;;;;;6194150;23;20701;-74
2023/01/23 14:17:21;;;;;;;6.85;5.72;;;;;;;;;;6194911;23;20025;-74
2023/01/23 14:19:53;;;;;;;8.02;6.07;;;;;;;;;;6194658;23;20028;-73
2023/01/23 14:22:19;;;;;;;9.48;7.53;;;;;;;;;;6170418;23;20025;-74
2023/01/23 14:24:50;;;;;;;7.75;6.95;;;;;;;;;;6196637;23;20410;-73
2023/01/23 14:27:21;;;;;;;6.03;5.07;;;;;;;;;;6199543;23;20070;-73
2023/01/23 14:29:57;;;;;;;10.18;8.23;;;;;;;;;;6200005;23;20067;-73
2023/01/23 14:32:24;;;;;;;8.55;5.85;;;;;;;;;;6175621;23;20020;-73
2023/01/23 14:34:53;;;;;;;12.02;9.55;;;;;;;;;;6202455;23;20127;-74
2023/01/23 14:37:20;;;;;;;15.10;11.05;;;;;;;;;;6200308;23;20021;-74
2023/01/23 14:39:46;;;;;;;7.15;5.38;;;;;;;;;;6201830;23;20107;-74
2023/01/23 14:42:21;;;;;;;4.63;3.70;;;;;;;;;;6175028;23;20052;-74
2023/01/23 14:44:47;;;;;;;6.45;5.13;;;;;;;;;;6200876;23;20061;-72
2023/01/23 14:47:36;;;;;;;7.43;5.70;;;;;;;;;;6200094;23;20016;-73
2023/01/23 14:50:03;;;;;;;6.68;5.88;;;;;;;;;;6198462;23;20020;-74
2023/01/23 14:52:30;;;;;;;5.85;5.03;;;;;;;;;;6199158;23;20564;-75
2023/01/23 14:54:56;;;;;;;4.25;3.65;;;;;;;;;;6199467;23;20352;-74
2023/01/23 14:57:23;;;;;;;4.20;3.72;;;;;;;;;;6198789;23;20721;-74
2023/01/23 14:59:50;;;;;;;7.22;3.80;;;;;;;;;;6199198;23;20059;-75
2023/01/23 15:02:25;;;;;;;4.57;4.07;;;;;;;;;;6181724;23;20016;-74
2023/01/23 15:05:10;;;;;;;5.28;4.47;;;;;;;;;;6180322;23;20320;-73
2023/01/23 15:07:48;;;;;;;4.78;3.60;;;;;;;;;;6204597;23;20845;-74
2023/01/23 15:10:19;;;;;;;5.28;3.05;;;;;;;;;;6187519;23;20040;-75